Time;durP1;ratioP1;P1;durP2;ratioP2;P2;SDS_P1;SDS_P2;PMS_P1;PMS_P2;Temp;Humidity;BMP_temperature;BMP_pressure;BME280_temperature;BME280_humidity;BME280_pressure;Samples;Min_cycle;Max_cycle;Signal;HPM_P1;HPM_P2
2022/10/22 00:00:01;;;;;;;1.40;1.40;;;;;;;;;;4971371;28;20693;-55
2022/10/22 00:02:27;;;;;;;1.50;1.50;;;;;;;;;;4968648;28;20221;-54
2022/10/22 00:04:55;;;;;;;1.30;1.30;;;;;;;;;;4967787;28;20229;-54
2022/10/22 00:07:21;;;;;;;1.50;1.50;;;;;;;;;;4964618;28;20241;-55
2022/10/22 00:09:47;;;;;;;1.73;1.70;;;;;;;;;;4978697;28;20229;-54
2022/10/22 00:12:14;;;;;;;1.40;1.40;;;;;;;;;;4973298;28;20265;-54
2022/10/22 00:14:40;;;;;;;1.50;1.50;;;;;;;;;;4965057;28;20235;-55
2022/10/22 00:17:06;;;;;;;1.60;1.60;;;;;;;;;;4987337;28;20827;-54
2022/10/22 00:19:31;;;;;;;1.60;1.60;;;;;;;;;;4991545;28;20217;-53
2022/10/22 00:21:57;;;;;;;1.40;1.40;;;;;;;;;;4990142;28;20213;-53
2022/10/22 00:24:24;;;;;;;1.60;1.60;;;;;;;;;;4986036;28;20229;-53
2022/10/22 00:26:50;;;;;;;1.50;1.50;;;;;;;;;;5001713;28;20226;-55
2022/10/22 00:29:19;;;;;;;1.60;1.60;;;;;;;;;;4991367;28;20287;-54
2022/10/22 00:31:48;;;;;;;1.53;1.53;;;;;;;;;;4980849;28;22348;-54
2022/10/22 00:34:15;;;;;;;1.73;1.70;;;;;;;;;;4979917;28;20851;-54
2022/10/22 00:36:41;;;;;;;1.50;1.50;;;;;;;;;;4994687;28;20668;-54
2022/10/22 00:39:07;;;;;;;1.43;1.43;;;;;;;;;;4988542;28;20238;-54
2022/10/22 00:41:33;;;;;;;1.77;1.70;;;;;;;;;;4981663;28;20225;-54
2022/10/22 00:44:03;;;;;;;1.50;1.50;;;;;;;;;;4976917;28;21638;-54
2022/10/22 00:46:29;;;;;;;1.80;1.70;;;;;;;;;;4976308;28;20241;-54
2022/10/22 00:48:55;;;;;;;1.63;1.63;;;;;;;;;;4977260;28;20275;-55
2022/10/22 00:51:22;;;;;;;1.50;1.50;;;;;;;;;;4990624;28;20253;-54
2022/10/22 00:53:49;;;;;;;1.67;1.63;;;;;;;;;;4985300;28;20213;-54
2022/10/22 00:56:15;;;;;;;1.53;1.53;;;;;;;;;;4982692;28;20217;-54
2022/10/22 00:58:42;;;;;;;1.83;1.73;;;;;;;;;;4980901;28;20790;-54
2022/10/22 01:01:08;;;;;;;1.80;1.70;;;;;;;;;;4967054;28;20740;-54
2022/10/22 01:03:34;;;;;;;1.63;1.63;;;;;;;;;;4977613;28;20751;-54
2022/10/22 01:06:01;;;;;;;1.90;1.80;;;;;;;;;;4987733;28;20238;-54
2022/10/22 01:08:34;;;;;;;1.50;1.50;;;;;;;;;;4972635;28;20261;-55
2022/10/22 01:11:09;;;;;;;1.50;1.50;;;;;;;;;;4987421;28;20233;-54
2022/10/22 01:13:38;;;;;;;1.60;1.60;;;;;;;;;;4997226;28;20240;-55
2022/10/22 01:16:07;;;;;;;1.40;1.40;;;;;;;;;;4952832;28;20300;-54
2022/10/22 01:18:36;;;;;;;1.30;1.30;;;;;;;;;;4990302;28;20228;-54
2022/10/22 01:21:18;;;;;;;1.60;1.60;;;;;;;;;;4993424;28;20228;-54
2022/10/22 01:23:54;;;;;;;1.40;1.40;;;;;;;;;;4981527;28;20762;-55
2022/10/22 01:26:22;;;;;;;1.30;1.30;;;;;;;;;;4958276;28;20217;-54
2022/10/22 01:28:54;;;;;;;1.90;1.80;;;;;;;;;;4988857;28;20225;-55
2022/10/22 01:31:19;;;;;;;1.60;1.60;;;;;;;;;;4987699;28;20232;-55
2022/10/22 01:33:45;;;;;;;1.50;1.50;;;;;;;;;;4997561;28;20233;-55
2022/10/22 01:36:11;;;;;;;1.20;1.20;;;;;;;;;;4997713;28;20217;-53
2022/10/22 01:38:37;;;;;;;1.40;1.40;;;;;;;;;;4973478;28;20221;-55
2022/10/22 01:41:03;;;;;;;1.50;1.50;;;;;;;;;;4993619;28;20229;-54
2022/10/22 01:43:29;;;;;;;1.40;1.40;;;;;;;;;;4972936;28;20256;-54
2022/10/22 01:45:59;;;;;;;1.50;1.50;;;;;;;;;;4992191;28;20305;-55
2022/10/22 01:48:44;;;;;;;1.50;1.50;;;;;;;;;;4980697;28;20264;-54
2022/10/22 01:51:13;;;;;;;1.50;1.50;;;;;;;;;;4990360;28;20320;-54
2022/10/22 01:53:42;;;;;;;1.30;1.30;;;;;;;;;;4991977;28;20664;-54
2022/10/22 01:56:21;;;;;;;2.00;1.90;;;;;;;;;;4985650;28;20312;-53
2022/10/22 01:59:01;;;;;;;1.50;1.50;;;;;;;;;;4988543;28;20691;-55
2022/10/22 02:01:42;;;;;;;1.80;1.70;;;;;;;;;;4989313;28;20221;-53
2022/10/22 02:04:22;;;;;;;1.47;1.47;;;;;;;;;;4982153;28;20237;-55
2022/10/22 02:06:49;;;;;;;1.87;1.77;;;;;;;;;;4962317;28;20267;-54
2022/10/22 02:09:15;;;;;;;1.70;1.70;;;;;;;;;;4990202;28;20226;-54
2022/10/22 02:11:41;;;;;;;2.23;2.13;;;;;;;;;;4954578;28;20236;-54
2022/10/22 02:14:07;;;;;;;1.97;1.87;;;;;;;;;;4975562;28;20693;-54
2022/10/22 02:16:34;;;;;;;1.70;1.70;;;;;;;;;;4957938;28;20304;-54
2022/10/22 02:19:01;;;;;;;1.87;1.77;;;;;;;;;;4956939;28;20229;-54
2022/10/22 02:21:27;;;;;;;2.00;1.90;;;;;;;;;;4981560;28;20233;-55
2022/10/22 02:23:53;;;;;;;2.10;2.00;;;;;;;;;;4979541;28;20232;-54
2022/10/22 02:26:21;;;;;;;2.07;1.97;;;;;;;;;;4979787;28;20275;-54
2022/10/22 02:29:06;;;;;;;1.60;1.60;;;;;;;;;;4994186;28;20253;-54
2022/10/22 02:31:32;;;;;;;1.60;1.60;;;;;;;;;;4996793;28;20332;-55
2022/10/22 02:33:59;;;;;;;1.50;1.50;;;;;;;;;;4961238;28;20225;-54
2022/10/22 02:36:25;;;;;;;1.40;1.40;;;;;;;;;;4993975;28;20258;-54
2022/10/22 02:38:51;;;;;;;1.30;1.30;;;;;;;;;;4981321;28;20716;-54
2022/10/22 02:41:17;;;;;;;1.73;1.70;;;;;;;;;;4967364;28;20291;-54
2022/10/22 02:43:43;;;;;;;1.90;1.80;;;;;;;;;;4970747;28;20308;-55
2022/10/22 02:46:10;;;;;;;1.80;1.70;;;;;;;;;;4989529;28;20233;-54
2022/10/22 02:48:36;;;;;;;1.77;1.70;;;;;;;;;;4968654;28;20937;-54
2022/10/22 02:51:02;;;;;;;1.57;1.57;;;;;;;;;;4984143;28;20272;-55
2022/10/22 02:53:28;;;;;;;1.53;1.53;;;;;;;;;;4987559;28;20243;-54
2022/10/22 02:55:54;;;;;;;1.40;1.40;;;;;;;;;;4978435;28;20610;-54
2022/10/22 02:58:20;;;;;;;1.80;1.70;;;;;;;;;;4992636;28;20695;-55
2022/10/22 03:00:45;;;;;;;1.40;1.40;;;;;;;;;;4984473;28;20225;-54
2022/10/22 03:03:11;;;;;;;1.40;1.40;;;;;;;;;;4990453;28;20229;-54
2022/10/22 03:05:37;;;;;;;1.50;1.50;;;;;;;;;;4988257;28;20545;-54
2022/10/22 03:08:03;;;;;;;1.57;1.57;;;;;;;;;;4987796;28;20225;-54
2022/10/22 03:10:29;;;;;;;1.53;1.53;;;;;;;;;;4985010;28;20316;-53
2022/10/22 03:12:55;;;;;;;1.60;1.60;;;;;;;;;;4991134;28;21621;-54
2022/10/22 03:15:21;;;;;;;1.47;1.47;;;;;;;;;;4991455;28;21091;-54
2022/10/22 03:17:47;;;;;;;1.77;1.70;;;;;;;;;;4985089;28;20232;-54
2022/10/22 03:20:13;;;;;;;1.57;1.57;;;;;;;;;;4999958;28;20774;-55
2022/10/22 03:22:39;;;;;;;1.60;1.60;;;;;;;;;;4989370;28;20237;-54
2022/10/22 03:25:06;;;;;;;1.73;1.67;;;;;;;;;;4975223;28;20236;-55
2022/10/22 03:27:32;;;;;;;1.20;1.20;;;;;;;;;;4983688;28;20243;-54
2022/10/22 03:29:58;;;;;;;1.43;1.43;;;;;;;;;;4969198;28;20225;-55
2022/10/22 03:32:24;;;;;;;1.40;1.40;;;;;;;;;;4965372;28;20268;-54
2022/10/22 03:34:50;;;;;;;1.20;1.20;;;;;;;;;;4994792;28;20627;-53
2022/10/22 03:37:16;;;;;;;1.10;1.10;;;;;;;;;;4993245;28;20794;-55
2022/10/22 03:39:42;;;;;;;1.27;1.27;;;;;;;;;;4984469;28;20259;-54
2022/10/22 03:42:08;;;;;;;1.20;1.20;;;;;;;;;;4968989;28;20308;-53
2022/10/22 03:44:35;;;;;;;1.10;1.10;;;;;;;;;;4979575;28;20225;-54
2022/10/22 03:47:01;;;;;;;1.40;1.40;;;;;;;;;;4989127;28;20319;-54
2022/10/22 03:49:27;;;;;;;1.30;1.30;;;;;;;;;;4992588;28;20235;-54
2022/10/22 03:51:53;;;;;;;1.10;1.10;;;;;;;;;;4975197;28;20236;-55
2022/10/22 03:54:19;;;;;;;1.50;1.50;;;;;;;;;;4985592;28;20311;-54
2022/10/22 03:56:45;;;;;;;1.53;1.53;;;;;;;;;;4985733;28;20225;-54
2022/10/22 03:59:12;;;;;;;1.30;1.30;;;;;;;;;;4980706;28;20236;-55
2022/10/22 04:01:38;;;;;;;1.50;1.50;;;;;;;;;;4952980;28;20857;-53
2022/10/22 04:04:04;;;;;;;1.00;1.00;;;;;;;;;;4980985;28;20236;-54
2022/10/22 04:06:30;;;;;;;1.20;1.20;;;;;;;;;;4967833;28;20241;-54
2022/10/22 04:08:56;;;;;;;1.30;1.30;;;;;;;;;;4978285;28;20303;-54
2022/10/22 04:11:22;;;;;;;1.40;1.40;;;;;;;;;;4983941;28;20328;-55
2022/10/22 04:13:48;;;;;;;1.20;1.20;;;;;;;;;;4983727;28;20308;-54
2022/10/22 04:16:18;;;;;;;1.30;1.30;;;;;;;;;;4976771;28;20225;-54
2022/10/22 04:18:44;;;;;;;1.20;1.20;;;;;;;;;;4958372;28;20228;-54
2022/10/22 04:21:10;;;;;;;1.73;1.67;;;;;;;;;;4979606;28;20696;-53
2022/10/22 04:23:36;;;;;;;1.60;1.60;;;;;;;;;;4977151;28;20301;-54
2022/10/22 04:26:04;;;;;;;1.30;1.30;;;;;;;;;;4979236;28;20252;-54
2022/10/22 04:28:29;;;;;;;1.30;1.30;;;;;;;;;;4978446;28;20291;-54
2022/10/22 04:30:55;;;;;;;1.40;1.40;;;;;;;;;;4991223;28;20230;-54
2022/10/22 04:33:21;;;;;;;1.30;1.30;;;;;;;;;;4997816;28;20560;-54
2022/10/22 04:35:47;;;;;;;1.30;1.30;;;;;;;;;;4990838;28;20260;-55
2022/10/22 04:38:14;;;;;;;1.60;1.60;;;;;;;;;;4981064;28;20225;-54
2022/10/22 04:40:40;;;;;;;1.57;1.57;;;;;;;;;;4988238;28;20638;-54
2022/10/22 04:43:06;;;;;;;1.50;1.50;;;;;;;;;;4984668;28;20232;-54
2022/10/22 04:45:32;;;;;;;1.90;1.80;;;;;;;;;;4975152;28;20252;-55
2022/10/22 04:47:58;;;;;;;1.60;1.60;;;;;;;;;;4981993;28;20224;-54
2022/10/22 04:50:24;;;;;;;1.73;1.70;;;;;;;;;;4983393;28;20614;-54
2022/10/22 04:52:50;;;;;;;2.03;1.93;;;;;;;;;;4980624;28;20224;-54
2022/10/22 04:55:16;;;;;;;1.50;1.50;;;;;;;;;;4979772;28;20230;-54
2022/10/22 04:57:42;;;;;;;1.50;1.50;;;;;;;;;;4979354;28;20944;-54
2022/10/22 05:00:08;;;;;;;1.87;1.77;;;;;;;;;;4988198;28;20286;-55
2022/10/22 05:02:34;;;;;;;1.40;1.40;;;;;;;;;;4983542;28;20239;-54
2022/10/22 05:05:00;;;;;;;1.40;1.40;;;;;;;;;;4982508;28;20263;-54
2022/10/22 05:07:26;;;;;;;1.30;1.30;;;;;;;;;;4982062;28;20241;-55
2022/10/22 05:09:52;;;;;;;1.47;1.47;;;;;;;;;;4976107;28;20322;-54
2022/10/22 05:12:18;;;;;;;1.50;1.50;;;;;;;;;;4983545;28;20785;-55
2022/10/22 05:14:44;;;;;;;1.73;1.70;;;;;;;;;;4983422;28;20315;-55
2022/10/22 05:17:10;;;;;;;1.30;1.30;;;;;;;;;;4987026;28;20228;-55
2022/10/22 05:19:36;;;;;;;2.03;1.93;;;;;;;;;;4982530;28;20689;-53
2022/10/22 05:22:03;;;;;;;1.40;1.40;;;;;;;;;;4969768;28;20237;-55
2022/10/22 05:24:29;;;;;;;1.50;1.50;;;;;;;;;;4978121;28;20316;-54
2022/10/22 05:26:56;;;;;;;1.90;1.80;;;;;;;;;;4973830;28;21775;-54
2022/10/22 05:29:22;;;;;;;1.30;1.30;;;;;;;;;;4964377;28;21663;-54
2022/10/22 05:31:48;;;;;;;1.40;1.40;;;;;;;;;;4981198;28;20316;-55
2022/10/22 05:34:14;;;;;;;1.40;1.40;;;;;;;;;;4982872;28;20836;-55
2022/10/22 05:36:40;;;;;;;1.60;1.60;;;;;;;;;;4987222;28;20219;-55
2022/10/22 05:39:06;;;;;;;1.40;1.40;;;;;;;;;;4974305;28;20232;-56
2022/10/22 05:41:32;;;;;;;1.40;1.40;;;;;;;;;;4986998;28;20252;-54
2022/10/22 05:43:58;;;;;;;1.50;1.50;;;;;;;;;;4979193;28;20248;-55
2022/10/22 05:46:24;;;;;;;1.80;1.70;;;;;;;;;;4973891;28;20589;-54
2022/10/22 05:48:51;;;;;;;1.90;1.80;;;;;;;;;;4987466;28;21284;-54
2022/10/22 05:51:17;;;;;;;1.90;1.80;;;;;;;;;;4987087;28;20383;-54
2022/10/22 05:53:43;;;;;;;1.77;1.70;;;;;;;;;;4985760;28;20665;-54
2022/10/22 05:56:11;;;;;;;2.03;1.93;;;;;;;;;;4989831;28;20223;-54
2022/10/22 05:58:37;;;;;;;1.30;1.30;;;;;;;;;;4985478;28;20908;-54
2022/10/22 06:01:03;;;;;;;1.60;1.60;;;;;;;;;;4987597;28;20225;-54
2022/10/22 06:03:30;;;;;;;1.57;1.57;;;;;;;;;;4993794;28;20217;-54
2022/10/22 06:05:56;;;;;;;1.50;1.50;;;;;;;;;;4988899;28;21237;-54
2022/10/22 06:08:22;;;;;;;2.00;1.90;;;;;;;;;;4997520;28;20220;-56
2022/10/22 06:10:48;;;;;;;1.50;1.50;;;;;;;;;;4994064;28;20639;-55
2022/10/22 06:13:14;;;;;;;1.60;1.60;;;;;;;;;;4991919;28;20227;-54
2022/10/22 06:15:40;;;;;;;1.57;1.57;;;;;;;;;;4989297;28;20225;-54
2022/10/22 06:18:06;;;;;;;1.43;1.43;;;;;;;;;;4991706;28;20225;-54
2022/10/22 06:20:33;;;;;;;1.43;1.43;;;;;;;;;;4961430;28;20221;-54
2022/10/22 06:22:59;;;;;;;1.47;1.47;;;;;;;;;;4985078;28;20336;-55
2022/10/22 06:25:25;;;;;;;1.40;1.40;;;;;;;;;;4991604;28;21970;-54
2022/10/22 06:27:51;;;;;;;1.40;1.40;;;;;;;;;;4988843;28;20222;-55
2022/10/22 06:30:17;;;;;;;1.20;1.20;;;;;;;;;;4972410;28;21824;-54
2022/10/22 06:32:43;;;;;;;1.20;1.20;;;;;;;;;;4990476;28;20359;-57
2022/10/22 06:35:09;;;;;;;1.40;1.40;;;;;;;;;;4991165;28;20685;-54
2022/10/22 06:37:35;;;;;;;1.40;1.40;;;;;;;;;;4993064;28;20229;-55
2022/10/22 06:40:01;;;;;;;1.20;1.20;;;;;;;;;;4981325;28;20283;-54
2022/10/22 06:42:27;;;;;;;1.30;1.30;;;;;;;;;;4992680;28;20276;-56
2022/10/22 06:44:53;;;;;;;1.67;1.67;;;;;;;;;;4990372;28;20236;-54
2022/10/22 06:47:19;;;;;;;1.43;1.43;;;;;;;;;;4981632;28;20620;-55
2022/10/22 06:49:45;;;;;;;1.23;1.23;;;;;;;;;;4991056;28;20252;-55
2022/10/22 06:52:12;;;;;;;1.40;1.40;;;;;;;;;;4977928;28;21065;-54
2022/10/22 06:54:37;;;;;;;1.40;1.40;;;;;;;;;;4981241;28;20226;-54
2022/10/22 06:57:03;;;;;;;1.33;1.33;;;;;;;;;;4990125;28;20232;-55
2022/10/22 06:59:29;;;;;;;1.20;1.20;;;;;;;;;;4983420;28;20318;-54
2022/10/22 07:01:55;;;;;;;1.37;1.37;;;;;;;;;;4980693;28;20772;-55
2022/10/22 07:04:21;;;;;;;1.50;1.50;;;;;;;;;;4985676;28;20339;-53
2022/10/22 07:06:47;;;;;;;1.10;1.10;;;;;;;;;;4986549;28;20679;-54
2022/10/22 07:09:13;;;;;;;1.10;1.10;;;;;;;;;;4982359;28;20802;-54
2022/10/22 07:11:41;;;;;;;1.40;1.40;;;;;;;;;;4989550;28;20717;-55
2022/10/22 07:14:07;;;;;;;1.30;1.30;;;;;;;;;;4978996;28;20225;-55
2022/10/22 07:16:33;;;;;;;1.13;1.13;;;;;;;;;;4974267;28;20587;-55
2022/10/22 07:18:59;;;;;;;1.30;1.30;;;;;;;;;;4983916;28;20282;-55
2022/10/22 07:21:25;;;;;;;1.40;1.40;;;;;;;;;;4981115;28;20312;-54
2022/10/22 07:23:51;;;;;;;1.37;1.37;;;;;;;;;;4993507;28;20229;-54
2022/10/22 07:26:19;;;;;;;1.40;1.40;;;;;;;;;;4983108;28;20594;-55
2022/10/22 07:28:45;;;;;;;1.30;1.30;;;;;;;;;;4968890;28;20814;-53
2022/10/22 07:31:11;;;;;;;1.37;1.37;;;;;;;;;;4991109;28;20312;-55
2022/10/22 07:33:37;;;;;;;1.10;1.10;;;;;;;;;;4981083;28;20758;-56
2022/10/22 07:36:04;;;;;;;1.17;1.17;;;;;;;;;;4983892;28;20224;-55
2022/10/22 07:38:30;;;;;;;1.33;1.33;;;;;;;;;;4985600;28;20762;-54
2022/10/22 07:40:56;;;;;;;1.00;1.00;;;;;;;;;;4985659;28;20234;-54
2022/10/22 07:43:22;;;;;;;1.00;1.00;;;;;;;;;;4986214;28;20245;-54
2022/10/22 07:45:48;;;;;;;1.13;1.13;;;;;;;;;;4973998;28;20667;-54
2022/10/22 07:48:14;;;;;;;0.93;0.93;;;;;;;;;;4979425;28;20991;-56
2022/10/22 07:50:40;;;;;;;1.30;1.30;;;;;;;;;;4953321;28;20225;-55
2022/10/22 07:53:06;;;;;;;0.90;0.90;;;;;;;;;;4984959;28;20238;-55
2022/10/22 07:55:32;;;;;;;1.00;1.00;;;;;;;;;;4973991;28;20237;-54
2022/10/22 07:57:58;;;;;;;0.90;0.90;;;;;;;;;;4987104;28;20236;-53
2022/10/22 08:00:24;;;;;;;1.03;1.03;;;;;;;;;;4977272;28;20779;-55
2022/10/22 08:02:50;;;;;;;0.80;0.80;;;;;;;;;;4980171;28;20236;-53
2022/10/22 08:05:16;;;;;;;0.80;0.80;;;;;;;;;;4994671;28;20308;-53
2022/10/22 08:07:42;;;;;;;1.20;1.20;;;;;;;;;;4995953;28;20343;-53
2022/10/22 08:10:08;;;;;;;1.20;1.20;;;;;;;;;;4955728;28;20224;-54
2022/10/22 08:12:34;;;;;;;1.50;1.50;;;;;;;;;;4990520;28;20925;-55
2022/10/22 08:15:00;;;;;;;1.10;1.10;;;;;;;;;;4997914;28;20350;-56
2022/10/22 08:17:26;;;;;;;1.00;1.00;;;;;;;;;;4985048;28;20661;-56
2022/10/22 08:19:52;;;;;;;1.10;1.10;;;;;;;;;;4986471;28;20731;-52
2022/10/22 08:22:18;;;;;;;1.10;1.10;;;;;;;;;;4980021;28;20236;-53
2022/10/22 08:24:44;;;;;;;1.30;1.30;;;;;;;;;;4978438;28;20239;-55
2022/10/22 08:27:10;;;;;;;1.20;1.20;;;;;;;;;;4968967;28;20224;-52
2022/10/22 08:29:36;;;;;;;1.10;1.10;;;;;;;;;;4991865;28;20912;-51
2022/10/22 08:32:02;;;;;;;1.10;1.10;;;;;;;;;;4987003;28;20769;-54
2022/10/22 08:34:28;;;;;;;1.07;1.07;;;;;;;;;;4990658;28;20619;-53
2022/10/22 08:36:54;;;;;;;1.10;1.10;;;;;;;;;;4979421;28;20235;-53
2022/10/22 08:39:20;;;;;;;1.30;1.30;;;;;;;;;;4997183;28;20212;-56
2022/10/22 08:41:59;;;;;;;1.27;1.27;;;;;;;;;;4990646;28;20782;-55
2022/10/22 08:44:29;;;;;;;1.40;1.40;;;;;;;;;;4955760;28;20956;-56
2022/10/22 08:47:14;;;;;;;1.10;1.10;;;;;;;;;;4986797;28;20217;-55
2022/10/22 08:49:40;;;;;;;1.13;1.13;;;;;;;;;;4992540;28;20251;-55
2022/10/22 08:52:07;;;;;;;1.20;1.20;;;;;;;;;;4970532;28;20703;-54
2022/10/22 08:54:48;;;;;;;1.10;1.10;;;;;;;;;;4987243;28;20232;-55
2022/10/22 08:57:43;;;;;;;1.10;1.10;;;;;;;;;;4998674;28;20264;-55
2022/10/22 09:00:09;;;;;;;1.33;1.33;;;;;;;;;;4893919;28;20236;-56
2022/10/22 09:02:47;;;;;;;1.30;1.30;;;;;;;;;;4973301;28;20697;-56
2022/10/22 09:05:20;;;;;;;1.20;1.20;;;;;;;;;;4981577;28;20271;-56
2022/10/22 09:07:49;;;;;;;1.00;1.00;;;;;;;;;;4976864;28;20379;-57
2022/10/22 09:10:16;;;;;;;0.90;0.90;;;;;;;;;;4959888;28;20777;-55
2022/10/22 09:12:41;;;;;;;1.20;1.20;;;;;;;;;;4989539;28;20235;-55
2022/10/22 09:15:12;;;;;;;1.20;1.20;;;;;;;;;;4987005;28;20703;-55
2022/10/22 09:17:48;;;;;;;1.03;1.03;;;;;;;;;;4999620;28;20240;-55
2022/10/22 09:20:25;;;;;;;0.90;0.90;;;;;;;;;;4965709;28;20217;-55
2022/10/22 09:22:57;;;;;;;1.10;1.10;;;;;;;;;;4962471;28;20233;-57
2022/10/22 09:25:24;;;;;;;1.03;1.03;;;;;;;;;;4977653;28;20237;-56
2022/10/22 09:27:51;;;;;;;1.00;1.00;;;;;;;;;;4959637;28;20233;-55
2022/10/22 09:30:18;;;;;;;1.00;1.00;;;;;;;;;;4955715;28;20235;-54
2022/10/22 09:32:44;;;;;;;1.00;1.00;;;;;;;;;;4975603;28;20244;-56
2022/10/22 09:35:10;;;;;;;1.10;1.10;;;;;;;;;;4986648;28;20234;-55
2022/10/22 09:37:36;;;;;;;1.00;1.00;;;;;;;;;;4994053;28;20237;-56
2022/10/22 09:40:03;;;;;;;1.00;1.00;;;;;;;;;;4971627;28;20316;-55
2022/10/22 09:42:29;;;;;;;1.37;1.30;;;;;;;;;;4987307;28;20258;-56
2022/10/22 09:44:57;;;;;;;1.30;1.30;;;;;;;;;;4976369;28;20779;-55
2022/10/22 09:47:32;;;;;;;1.40;1.40;;;;;;;;;;4985970;28;20235;-55
2022/10/22 09:50:06;;;;;;;1.20;1.20;;;;;;;;;;4961008;28;20248;-55
2022/10/22 09:52:32;;;;;;;1.20;1.20;;;;;;;;;;4960657;28;20238;-54
2022/10/22 09:54:58;;;;;;;1.10;1.10;;;;;;;;;;4960611;28;20229;-55
2022/10/22 09:57:24;;;;;;;1.27;1.27;;;;;;;;;;4949993;28;20241;-55
2022/10/22 09:59:50;;;;;;;1.30;1.30;;;;;;;;;;4995725;28;20286;-55
2022/10/22 10:02:19;;;;;;;0.90;0.90;;;;;;;;;;5000646;28;20996;-56
2022/10/22 10:04:49;;;;;;;1.10;1.10;;;;;;;;;;4993610;28;20235;-56
2022/10/22 10:07:22;;;;;;;0.90;0.90;;;;;;;;;;4980084;28;20241;-55
2022/10/22 10:09:48;;;;;;;0.90;0.90;;;;;;;;;;4974551;28;20232;-55
2022/10/22 10:12:22;;;;;;;0.90;0.90;;;;;;;;;;4964838;28;20228;-56
2022/10/22 10:14:52;;;;;;;1.10;1.10;;;;;;;;;;4978524;28;20288;-55
2022/10/22 10:17:21;;;;;;;1.00;1.00;;;;;;;;;;4982258;28;20626;-55
2022/10/22 10:20:07;;;;;;;1.03;1.03;;;;;;;;;;4981382;28;20264;-55
2022/10/22 10:22:38;;;;;;;0.90;0.90;;;;;;;;;;4949707;28;20249;-56
2022/10/22 10:25:16;;;;;;;1.00;1.00;;;;;;;;;;4957229;28;22907;-56
2022/10/22 10:27:43;;;;;;;0.90;0.90;;;;;;;;;;4976033;28;20229;-55
2022/10/22 10:30:13;;;;;;;1.20;1.20;;;;;;;;;;4971971;28;20232;-56
2022/10/22 10:32:57;;;;;;;0.90;0.90;;;;;;;;;;4981500;28;20290;-54
2022/10/22 10:35:25;;;;;;;1.00;1.00;;;;;;;;;;4982254;28;20235;-55
2022/10/22 10:38:09;;;;;;;1.20;1.20;;;;;;;;;;4978953;28;20213;-55
2022/10/22 10:40:38;;;;;;;1.00;1.00;;;;;;;;;;4984525;28;20521;-55
2022/10/22 10:43:16;;;;;;;1.00;1.00;;;;;;;;;;4970246;28;20229;-55
2022/10/22 10:45:42;;;;;;;1.10;1.10;;;;;;;;;;4962171;28;20358;-55
2022/10/22 10:48:13;;;;;;;1.10;1.10;;;;;;;;;;4971484;28;20218;-56
2022/10/22 10:50:39;;;;;;;1.10;1.10;;;;;;;;;;4984921;28;20229;-55
2022/10/22 10:53:40;;;;;;;0.83;0.83;;;;;;;;;;4988015;28;20297;-57
2022/10/22 10:56:11;;;;;;;1.00;1.00;;;;;;;;;;4931652;28;20254;-56
2022/10/22 10:58:49;;;;;;;1.00;1.00;;;;;;;;;;4958764;28;20790;-57
2022/10/22 11:01:24;;;;;;;0.90;0.90;;;;;;;;;;4982305;28;20213;-56
2022/10/22 11:03:53;;;;;;;0.90;0.90;;;;;;;;;;4968540;28;20279;-55
2022/10/22 11:06:19;;;;;;;1.00;1.00;;;;;;;;;;4993939;28;20809;-55
2022/10/22 11:08:54;;;;;;;1.00;1.00;;;;;;;;;;4961507;28;20281;-56
2022/10/22 11:11:23;;;;;;;1.10;1.10;;;;;;;;;;4969874;28;20240;-56
2022/10/22 11:13:50;;;;;;;0.90;0.90;;;;;;;;;;4998106;28;20219;-55
2022/10/22 11:16:16;;;;;;;0.97;0.97;;;;;;;;;;4959788;28;20225;-54
2022/10/22 11:19:03;;;;;;;1.20;1.20;;;;;;;;;;4983409;28;21067;-56
2022/10/22 11:21:30;;;;;;;1.10;1.10;;;;;;;;;;4977381;28;20312;-56
2022/10/22 11:24:01;;;;;;;0.93;0.93;;;;;;;;;;4953301;28;20829;-55
2022/10/22 11:26:29;;;;;;;1.00;1.00;;;;;;;;;;4981022;28;20510;-55
2022/10/22 11:28:57;;;;;;;1.00;1.00;;;;;;;;;;4951109;28;20217;-56
2022/10/22 11:31:24;;;;;;;0.90;0.90;;;;;;;;;;4951408;28;20228;-55
2022/10/22 11:33:54;;;;;;;1.00;1.00;;;;;;;;;;4986956;28;20747;-55
2022/10/22 11:36:21;;;;;;;1.17;1.17;;;;;;;;;;4988619;28;21354;-55
2022/10/22 11:38:47;;;;;;;1.10;1.10;;;;;;;;;;4972423;28;20364;-54
2022/10/22 11:41:13;;;;;;;0.90;0.90;;;;;;;;;;4956829;28;20241;-55
2022/10/22 11:43:51;;;;;;;1.00;1.00;;;;;;;;;;4968879;28;20230;-55
2022/10/22 11:46:17;;;;;;;1.30;1.30;;;;;;;;;;4990473;28;20263;-55
2022/10/22 11:48:43;;;;;;;1.10;1.10;;;;;;;;;;4993318;28;20676;-55
2022/10/22 11:51:28;;;;;;;1.20;1.20;;;;;;;;;;4982871;28;20217;-55
2022/10/22 11:53:55;;;;;;;1.00;1.00;;;;;;;;;;4991319;28;20228;-55
2022/10/22 11:56:22;;;;;;;1.30;1.30;;;;;;;;;;4979053;28;20221;-55
2022/10/22 11:58:48;;;;;;;1.00;1.00;;;;;;;;;;4985495;28;20236;-56
2022/10/22 12:01:16;;;;;;;1.00;1.00;;;;;;;;;;4988625;28;20224;-55
2022/10/22 12:04:04;;;;;;;1.00;1.00;;;;;;;;;;4984080;28;20216;-55
2022/10/22 12:06:41;;;;;;;0.90;0.90;;;;;;;;;;4980962;28;20672;-54
2022/10/22 12:09:07;;;;;;;1.00;1.00;;;;;;;;;;4954486;28;20232;-56
2022/10/22 12:11:46;;;;;;;1.30;1.30;;;;;;;;;;4983802;28;25690;-55
2022/10/22 12:14:18;;;;;;;1.10;1.10;;;;;;;;;;4972272;28;20296;-55
2022/10/22 12:16:44;;;;;;;1.10;1.10;;;;;;;;;;4985308;28;20330;-56
2022/10/22 12:19:10;;;;;;;1.30;1.30;;;;;;;;;;4990523;28;20232;-55
2022/10/22 12:21:39;;;;;;;1.30;1.30;;;;;;;;;;4988223;28;20228;-55
2022/10/22 12:24:06;;;;;;;1.10;1.10;;;;;;;;;;4972369;28;20225;-55
2022/10/22 12:26:33;;;;;;;1.50;1.50;;;;;;;;;;4990250;28;20680;-55
2022/10/22 12:29:00;;;;;;;1.42;1.42;;;;;;;;;;4993331;28;20244;-54
2022/10/22 12:31:26;;;;;;;1.13;1.13;;;;;;;;;;4985442;28;20244;-55
2022/10/22 12:33:55;;;;;;;1.20;1.20;;;;;;;;;;4976570;28;20218;-55
2022/10/22 12:36:21;;;;;;;1.30;1.30;;;;;;;;;;4970727;28;20233;-56
2022/10/22 12:38:47;;;;;;;1.63;1.63;;;;;;;;;;4971893;28;20275;-55
2022/10/22 12:41:13;;;;;;;1.67;1.67;;;;;;;;;;4973314;28;20236;-56
2022/10/22 12:43:39;;;;;;;1.50;1.50;;;;;;;;;;4989335;28;20340;-57
2022/10/22 12:46:12;;;;;;;1.60;1.60;;;;;;;;;;4983190;28;20221;-56
2022/10/22 12:48:38;;;;;;;1.42;1.42;;;;;;;;;;4975898;28;20275;-55
2022/10/22 12:51:06;;;;;;;1.50;1.50;;;;;;;;;;4993525;28;20224;-56
2022/10/22 12:53:34;;;;;;;1.50;1.50;;;;;;;;;;4945934;28;20778;-56
2022/10/22 12:56:01;;;;;;;1.48;1.48;;;;;;;;;;4941444;28;20212;-56
2022/10/22 12:58:28;;;;;;;1.60;1.60;;;;;;;;;;4965006;28;20263;-55
2022/10/22 13:00:56;;;;;;;1.50;1.50;;;;;;;;;;4969748;28;20868;-57
2022/10/22 13:03:50;;;;;;;1.60;1.60;;;;;;;;;;4982618;28;20284;-55
2022/10/22 13:06:20;;;;;;;1.63;1.63;;;;;;;;;;4974653;28;21116;-57
2022/10/22 13:09:01;;;;;;;1.60;1.60;;;;;;;;;;4987260;28;20220;-57
2022/10/22 13:11:31;;;;;;;1.25;1.25;;;;;;;;;;4983052;28;20232;-57
2022/10/22 13:14:23;;;;;;;1.10;1.10;;;;;;;;;;4983984;28;20224;-56
2022/10/22 13:17:08;;;;;;;1.50;1.50;;;;;;;;;;4975130;28;20743;-56
2022/10/22 13:19:46;;;;;;;1.55;1.55;;;;;;;;;;4986806;28;20732;-55
2022/10/22 13:22:29;;;;;;;1.50;1.50;;;;;;;;;;4974212;28;20584;-56
2022/10/22 13:24:55;;;;;;;1.40;1.40;;;;;;;;;;4976420;28;20772;-56
2022/10/22 13:27:22;;;;;;;1.50;1.50;;;;;;;;;;4988086;28;20221;-58
2022/10/22 13:29:48;;;;;;;1.50;1.50;;;;;;;;;;4986541;28;20798;-56
2022/10/22 13:32:32;;;;;;;1.60;1.60;;;;;;;;;;4985464;28;20232;-56
2022/10/22 13:34:59;;;;;;;1.80;1.70;;;;;;;;;;4957322;28;20571;-56
2022/10/22 13:37:25;;;;;;;1.98;1.88;;;;;;;;;;4999315;28;20221;-56
2022/10/22 13:39:51;;;;;;;2.00;1.90;;;;;;;;;;5000753;28;20817;-55
2022/10/22 13:42:17;;;;;;;2.10;2.00;;;;;;;;;;4986821;28;20224;-57
2022/10/22 13:44:43;;;;;;;1.88;1.77;;;;;;;;;;4987224;28;20312;-57
2022/10/22 13:47:11;;;;;;;1.60;1.60;;;;;;;;;;4987279;28;20231;-56
2022/10/22 13:49:39;;;;;;;1.90;1.80;;;;;;;;;;4968347;28;20236;-57
2022/10/22 13:52:05;;;;;;;2.00;1.90;;;;;;;;;;4964322;28;20217;-56
2022/10/22 13:54:30;;;;;;;1.80;1.70;;;;;;;;;;4987719;28;20224;-57
2022/10/22 13:56:56;;;;;;;1.50;1.50;;;;;;;;;;4984234;28;20225;-57
2022/10/22 13:59:22;;;;;;;1.50;1.50;;;;;;;;;;4969084;28;20236;-57
2022/10/22 14:01:48;;;;;;;1.60;1.60;;;;;;;;;;4974865;28;20289;-56
2022/10/22 14:04:14;;;;;;;1.50;1.50;;;;;;;;;;4980095;28;20224;-57
2022/10/22 14:06:40;;;;;;;1.52;1.52;;;;;;;;;;4988934;28;20232;-56
2022/10/22 14:09:10;;;;;;;1.20;1.20;;;;;;;;;;4982695;28;21537;-57
2022/10/22 14:11:36;;;;;;;1.50;1.50;;;;;;;;;;4982024;28;20234;-57
2022/10/22 14:14:03;;;;;;;1.30;1.30;;;;;;;;;;4986102;28;20307;-57
2022/10/22 14:16:31;;;;;;;1.30;1.30;;;;;;;;;;4975994;28;20280;-57
2022/10/22 14:18:57;;;;;;;1.30;1.30;;;;;;;;;;4992527;28;21840;-56
2022/10/22 14:21:23;;;;;;;1.40;1.40;;;;;;;;;;4955634;28;20232;-56
2022/10/22 14:23:50;;;;;;;1.50;1.50;;;;;;;;;;4975779;28;20750;-56
2022/10/22 14:26:29;;;;;;;1.40;1.40;;;;;;;;;;4962645;28;20226;-54
2022/10/22 14:28:54;;;;;;;1.70;1.70;;;;;;;;;;4978835;28;20230;-57
2022/10/22 14:31:20;;;;;;;1.50;1.50;;;;;;;;;;4987115;28;20256;-55
2022/10/22 14:33:47;;;;;;;1.60;1.60;;;;;;;;;;4977193;28;20378;-55
2022/10/22 14:36:13;;;;;;;1.60;1.60;;;;;;;;;;4977080;28;20228;-54
2022/10/22 14:38:40;;;;;;;1.40;1.40;;;;;;;;;;4970950;28;20663;-56
2022/10/22 14:41:10;;;;;;;1.50;1.50;;;;;;;;;;4978335;28;20225;-56
2022/10/22 14:43:36;;;;;;;1.40;1.40;;;;;;;;;;4973021;28;20280;-55
2022/10/22 14:46:01;;;;;;;1.40;1.40;;;;;;;;;;4969391;28;20224;-56
2022/10/22 14:48:27;;;;;;;1.60;1.60;;;;;;;;;;4977838;28;20229;-54